createdAt,value
2017-09-29T00:01:57.738Z,23.73
2017-09-29T00:04:25.315Z,23.20
2017-09-29T00:06:52.878Z,21.83
2017-09-29T00:09:20.480Z,21.53
2017-09-29T00:11:49.097Z,21.83
2017-09-29T00:14:16.698Z,19.37
2017-09-29T00:16:44.271Z,20.23
2017-09-29T00:39:28.939Z,21.07
2017-09-29T00:41:56.706Z,18.27
2017-09-29T00:44:24.282Z,18.37
2017-09-29T00:46:52.910Z,18.93
2017-09-29T00:55:43.598Z,22.47
2017-09-29T00:58:11.170Z,18.83
2017-09-29T01:00:38.765Z,18.40
2017-09-29T01:03:06.359Z,16.67
2017-09-29T01:05:34.721Z,17.20
2017-09-29T01:08:02.312Z,15.80
2017-09-29T01:10:29.899Z,16.87
2017-09-29T01:12:57.498Z,18.20
2017-09-29T01:15:25.087Z,19.00
2017-09-29T01:17:53.450Z,18.30
2017-09-29T01:31:53.866Z,19.47
2017-09-29T01:34:21.413Z,21.07
2017-09-29T01:36:48.971Z,21.93
2017-09-29T01:39:16.569Z,22.17
2017-09-29T01:41:44.907Z,25.40
2017-09-29T01:44:12.464Z,21.40
2017-09-29T01:46:40.037Z,20.63
2017-09-29T01:49:07.597Z,19.73
2017-09-29T01:51:35.155Z,20.10
2017-09-29T01:54:02.723Z,21.97
2017-09-29T01:56:31.042Z,22.00
2017-09-29T01:58:58.616Z,26.17
2017-09-29T02:01:26.202Z,23.20
2017-09-29T02:03:53.763Z,30.63
2017-09-29T02:06:21.339Z,25.23
2017-09-29T02:08:48.894Z,24.87
2017-09-29T02:11:16.558Z,25.37
2017-09-29T02:13:44.114Z,22.87
2017-09-29T02:16:11.696Z,22.80
2017-09-29T02:24:48.496Z,22.27
2017-09-29T02:27:16.062Z,25.97
2017-09-29T02:29:43.677Z,25.03
2017-09-29T02:32:12.014Z,24.70
2017-09-29T02:34:39.579Z,24.97
2017-09-29T02:37:07.268Z,25.10
2017-09-29T02:39:34.926Z,23.77
2017-09-29T02:42:02.484Z,24.20
2017-09-29T02:44:30.038Z,23.53
2017-09-29T02:46:57.600Z,24.00
2017-09-29T02:55:11.715Z,25.67
2017-09-29T02:57:41.592Z,25.27
2017-09-29T03:00:12.362Z,25.00
2017-09-29T03:02:41.618Z,24.80
2017-09-29T03:05:14.030Z,23.97
2017-09-29T03:07:41.584Z,23.53
2017-09-29T03:10:09.186Z,24.67
2017-09-29T03:12:37.532Z,27.30
2017-09-29T03:15:05.082Z,23.47
2017-09-29T03:17:32.722Z,26.60
2017-09-29T03:22:57.350Z,24.97
2017-09-29T03:25:24.926Z,27.50
2017-09-29T03:27:52.507Z,28.27
2017-09-29T03:30:21.385Z,25.53
2017-09-29T03:32:49.064Z,27.00
2017-09-29T03:35:16.590Z,28.67
2017-09-29T03:37:44.169Z,27.63
2017-09-29T03:40:11.762Z,30.03
2017-09-29T03:42:39.365Z,30.03
2017-09-29T03:45:06.922Z,28.60
2017-09-29T03:47:34.489Z,30.10
2017-09-29T03:50:03.623Z,29.57
2017-09-29T03:52:32.288Z,31.30
2017-09-29T03:55:00.790Z,31.23
2017-09-29T03:57:31.138Z,31.70
2017-09-29T03:59:58.743Z,32.90
2017-09-29T04:02:26.302Z,30.50
2017-09-29T04:04:53.866Z,30.37
2017-09-29T04:07:21.603Z,32.20
2017-09-29T04:09:49.151Z,32.67
2017-09-29T04:12:16.734Z,30.13
2017-09-29T04:14:44.303Z,31.97
2017-09-29T04:17:12.645Z,32.37
2017-09-29T04:19:40.242Z,30.13
2017-09-29T04:22:07.804Z,31.77
2017-09-29T04:24:35.402Z,32.43
2017-09-29T04:33:16.296Z,30.67
2017-09-29T04:35:43.938Z,30.50
2017-09-29T04:38:11.507Z,30.77
2017-09-29T04:40:39.083Z,30.07
2017-09-29T04:43:07.423Z,30.03
2017-09-29T04:45:34.994Z,30.70
2017-09-29T04:48:02.584Z,30.10
2017-09-29T04:50:30.176Z,32.37
2017-09-29T04:52:57.754Z,29.77
2017-09-29T04:55:25.325Z,30.53
2017-09-29T04:57:52.905Z,29.80
2017-09-29T05:00:20.510Z,32.27
2017-09-29T05:02:48.074Z,30.20
2017-09-29T05:05:16.423Z,28.97
2017-09-29T05:07:44.805Z,31.00
2017-09-29T05:10:12.385Z,28.77
2017-09-29T05:12:39.958Z,29.57
2017-09-29T05:15:08.334Z,29.10
2017-09-29T05:17:35.914Z,31.77
2017-09-29T05:20:03.470Z,33.30
2017-09-29T05:22:31.827Z,30.20
2017-09-29T05:25:00.162Z,30.57
2017-09-29T05:27:27.744Z,28.00
2017-09-29T05:29:55.342Z,28.23
2017-09-29T05:32:23.687Z,32.93
2017-09-29T05:34:51.257Z,29.90
2017-09-29T05:37:18.838Z,27.03
2017-09-29T05:39:46.403Z,30.93
2017-09-29T05:42:13.997Z,28.03
2017-09-29T05:44:41.558Z,24.77
2017-09-29T05:47:09.143Z,26.80
2017-09-29T05:49:36.759Z,25.60
2017-09-29T05:52:04.324Z,26.80
2017-09-29T05:54:31.906Z,29.30
2017-09-29T05:56:59.476Z,32.13
2017-09-29T05:59:27.058Z,30.87
2017-09-29T06:01:54.640Z,33.47
2017-09-29T06:04:22.231Z,32.83
2017-09-29T06:06:50.579Z,32.80
2017-09-29T06:09:18.154Z,33.13
2017-09-29T06:11:45.748Z,32.80
2017-09-29T06:14:14.139Z,28.03
2017-09-29T06:16:41.742Z,29.87
2017-09-29T06:19:09.329Z,30.53
2017-09-29T06:21:36.883Z,28.03
2017-09-29T06:24:04.476Z,27.33
2017-09-29T06:26:32.802Z,28.03
2017-09-29T06:29:00.402Z,26.63
2017-09-29T06:31:27.963Z,26.73
2017-09-29T06:33:55.531Z,28.80
2017-09-29T06:36:23.117Z,25.93
2017-09-29T06:38:50.679Z,26.67
2017-09-29T06:41:18.262Z,23.93
2017-09-29T06:43:45.842Z,25.03
2017-09-29T06:46:13.408Z,24.27
2017-09-29T06:48:40.997Z,23.33
2017-09-29T06:51:09.326Z,27.87
2017-09-29T06:53:36.919Z,24.33
2017-09-29T06:56:04.559Z,25.37
2017-09-29T06:58:32.177Z,25.63
2017-09-29T07:01:00.508Z,23.87
2017-09-29T07:03:28.087Z,24.10
2017-09-29T07:05:55.686Z,23.77
2017-09-29T07:08:23.289Z,26.00
2017-09-29T07:10:50.907Z,23.43
2017-09-29T07:13:18.649Z,32.93
2017-09-29T07:15:46.221Z,25.13
2017-09-29T07:18:14.557Z,23.30
2017-09-29T07:20:42.151Z,27.33
2017-09-29T07:23:09.722Z,25.27
2017-09-29T07:25:41.320Z,23.63
2017-09-29T07:28:11.536Z,22.03
2017-09-29T07:30:41.817Z,23.57
2017-09-29T07:33:09.413Z,20.37
2017-09-29T07:35:37.758Z,15.83
2017-09-29T07:38:05.346Z,17.27
2017-09-29T07:40:33.677Z,28.33
2017-09-29T07:43:01.314Z,15.20
2017-09-29T07:45:28.895Z,16.13
2017-09-29T07:47:56.491Z,14.90
2017-09-29T07:50:24.054Z,15.43
2017-09-29T07:52:51.653Z,11.93
2017-09-29T07:55:20.010Z,13.73
2017-09-29T07:57:47.574Z,15.53
2017-09-29T08:00:15.248Z,13.23
2017-09-29T08:02:43.571Z,14.63
2017-09-29T08:05:11.154Z,10.07
2017-09-29T08:07:38.718Z,10.03
2017-09-29T08:10:06.320Z,16.10
2017-09-29T08:12:34.658Z,28.93
2017-09-29T08:15:02.228Z,8.57
2017-09-29T08:17:29.818Z,8.87
2017-09-29T08:19:58.188Z,85.73
2017-09-29T08:22:26.014Z,36.90
2017-09-29T08:24:53.630Z,14.50
2017-09-29T08:27:22.004Z,12.40
2017-09-29T08:29:50.390Z,8.03
2017-09-29T08:32:18.714Z,9.90
2017-09-29T08:34:46.327Z,14.70
2017-09-29T08:37:14.674Z,9.90
2017-09-29T08:39:42.293Z,54.33
2017-09-29T08:42:10.640Z,70.87
2017-09-29T08:44:38.231Z,11.47
2017-09-29T08:47:06.616Z,9.80
2017-09-29T08:49:34.945Z,7.50
2017-09-29T08:52:02.529Z,11.30
2017-09-29T08:54:30.196Z,12.53
2017-09-29T08:56:57.768Z,13.10
2017-09-29T08:59:26.138Z,9.00
2017-09-29T09:01:53.696Z,15.63
2017-09-29T09:04:21.286Z,6.03
2017-09-29T09:06:49.609Z,10.83
2017-09-29T09:09:17.217Z,12.93
2017-09-29T09:11:45.414Z,9.83
2017-09-29T09:14:13.740Z,9.23
2017-09-29T09:16:41.483Z,13.17
2017-09-29T09:19:09.092Z,9.70
2017-09-29T09:21:37.442Z,11.63
2017-09-29T09:24:05.027Z,5.87
2017-09-29T09:26:32.622Z,6.77
2017-09-29T09:29:00.943Z,6.77
2017-09-29T09:31:28.523Z,6.53
2017-09-29T09:33:56.257Z,7.50
2017-09-29T09:36:23.828Z,6.00
2017-09-29T09:38:51.398Z,7.37
2017-09-29T09:41:18.927Z,6.70
2017-09-29T09:43:46.571Z,10.70
2017-09-29T09:46:14.194Z,6.03
2017-09-29T09:48:41.786Z,9.67
2017-09-29T09:51:10.098Z,11.63
2017-09-29T09:53:37.659Z,6.37
2017-09-29T09:56:05.251Z,5.80
2017-09-29T09:58:32.811Z,7.57
2017-09-29T10:01:00.425Z,5.53
2017-09-29T10:03:28.797Z,4.43
2017-09-29T10:05:56.359Z,6.80
2017-09-29T10:08:24.710Z,5.33
2017-09-29T10:10:52.311Z,9.43
2017-09-29T10:13:20.633Z,6.37
2017-09-29T10:15:48.244Z,5.50
2017-09-29T10:18:15.842Z,11.80
2017-09-29T10:20:43.440Z,6.30
2017-09-29T10:23:11.008Z,4.60
2017-09-29T10:25:41.486Z,6.03
2017-09-29T10:28:09.820Z,4.07
2017-09-29T10:30:37.408Z,4.73
2017-09-29T10:33:04.979Z,5.43
2017-09-29T10:35:33.304Z,6.10
2017-09-29T10:38:00.871Z,7.03
2017-09-29T10:40:28.454Z,7.47
2017-09-29T10:42:56.319Z,4.63
2017-09-29T10:45:23.885Z,5.63
2017-09-29T10:47:51.432Z,4.33
2017-09-29T10:50:19.005Z,5.20
2017-09-29T10:52:46.570Z,3.60
2017-09-29T10:55:14.154Z,5.60
2017-09-29T10:57:41.714Z,3.70
2017-09-29T11:00:09.305Z,5.30
2017-09-29T11:02:37.638Z,4.33
2017-09-29T11:05:05.186Z,4.50
2017-09-29T11:07:32.782Z,3.80
2017-09-29T11:10:01.119Z,5.77
2017-09-29T11:12:28.705Z,7.20
2017-09-29T11:14:56.307Z,3.33
2017-09-29T11:17:24.631Z,4.40
2017-09-29T11:19:52.214Z,3.40
2017-09-29T11:22:19.787Z,5.40
2017-09-29T11:24:47.368Z,3.33
2017-09-29T11:27:15.747Z,5.50
2017-09-29T11:29:43.319Z,6.17
2017-09-29T11:32:11.663Z,4.70
2017-09-29T11:34:39.249Z,5.50
2017-09-29T11:37:06.842Z,4.57
2017-09-29T11:39:35.317Z,31.33
2017-09-29T11:42:03.669Z,13.77
2017-09-29T11:44:31.215Z,10.83
2017-09-29T11:46:58.958Z,3.87
2017-09-29T11:49:26.548Z,6.00
2017-09-29T11:51:54.161Z,4.57
2017-09-29T11:54:22.495Z,5.40
2017-09-29T11:56:50.078Z,14.60
2017-09-29T11:59:17.662Z,6.40
2017-09-29T12:01:46.018Z,7.60
2017-09-29T12:04:13.681Z,4.13
2017-09-29T12:06:42.203Z,4.27
2017-09-29T12:09:09.759Z,6.27
2017-09-29T12:11:38.126Z,4.80
2017-09-29T12:14:06.448Z,7.30
2017-09-29T12:16:34.035Z,2.80
2017-09-29T12:19:01.598Z,7.80
2017-09-29T12:21:29.182Z,9.97
2017-09-29T12:23:56.826Z,5.90
2017-09-29T12:26:24.409Z,10.00
2017-09-29T12:28:52.002Z,5.50
2017-09-29T12:31:19.789Z,5.73
2017-09-29T12:33:47.378Z,3.73
2017-09-29T12:36:14.955Z,6.07
2017-09-29T12:38:43.409Z,4.30
2017-09-29T12:41:11.077Z,4.77
2017-09-29T12:43:38.672Z,9.83
2017-09-29T12:46:07.018Z,6.70
2017-09-29T12:48:34.574Z,3.63
2017-09-29T12:51:03.028Z,3.03
2017-09-29T12:53:30.666Z,3.43
2017-09-29T12:55:58.992Z,3.03
2017-09-29T12:58:26.593Z,3.97
2017-09-29T13:00:54.163Z,5.53
2017-09-29T13:03:22.547Z,5.77
2017-09-29T13:05:50.903Z,4.40
2017-09-29T13:08:18.471Z,3.00
2017-09-29T13:10:47.006Z,6.00
2017-09-29T13:13:14.564Z,3.40
2017-09-29T13:15:42.187Z,6.57
2017-09-29T13:18:09.810Z,4.67
2017-09-29T13:20:37.386Z,3.57
2017-09-29T13:23:05.059Z,6.80
2017-09-29T13:25:32.641Z,4.83
2017-09-29T13:28:00.196Z,3.83
2017-09-29T13:30:27.797Z,3.50
2017-09-29T13:32:56.308Z,3.37
2017-09-29T13:35:23.979Z,10.47
2017-09-29T13:37:51.596Z,4.27
2017-09-29T13:40:19.207Z,3.50
2017-09-29T13:42:46.947Z,3.67
2017-09-29T13:45:14.560Z,2.77
2017-09-29T13:47:42.139Z,3.53
2017-09-29T13:50:09.704Z,6.10
2017-09-29T13:52:37.295Z,5.80
2017-09-29T13:55:04.863Z,6.47
2017-09-29T13:57:32.483Z,4.73
2017-09-29T14:00:00.054Z,5.00
2017-09-29T14:02:27.637Z,4.83
2017-09-29T14:04:55.202Z,6.30
2017-09-29T14:07:22.769Z,3.93
2017-09-29T14:09:50.361Z,5.73
2017-09-29T14:12:18.757Z,5.40
2017-09-29T14:14:46.398Z,3.10
2017-09-29T14:17:13.997Z,9.30
2017-09-29T14:19:42.375Z,8.33
2017-09-29T14:22:10.028Z,5.37
2017-09-29T14:24:37.603Z,4.27
2017-09-29T14:27:05.198Z,7.13
2017-09-29T14:29:33.539Z,6.93
2017-09-29T14:32:01.131Z,10.23
2017-09-29T14:34:28.734Z,4.20
2017-09-29T14:36:56.315Z,4.23
2017-09-29T14:39:23.869Z,7.17
2017-09-29T14:41:51.446Z,5.10
2017-09-29T14:44:19.023Z,4.87
2017-09-29T14:46:46.585Z,5.93
2017-09-29T14:49:14.147Z,5.90
2017-09-29T14:51:41.745Z,7.80
2017-09-29T14:54:10.076Z,7.70
2017-09-29T14:56:37.631Z,5.20
2017-09-29T14:59:05.219Z,4.70
2017-09-29T15:01:32.785Z,9.47
2017-09-29T15:04:00.347Z,5.27
2017-09-29T15:06:27.934Z,4.70
2017-09-29T15:08:56.263Z,4.90
2017-09-29T15:11:23.847Z,7.80
2017-09-29T15:13:51.439Z,4.83
2017-09-29T15:16:19.769Z,5.33
2017-09-29T15:18:47.319Z,4.67
2017-09-29T15:21:14.909Z,6.80
2017-09-29T15:23:42.545Z,5.73
2017-09-29T15:26:10.114Z,11.87
2017-09-29T15:28:37.771Z,7.83
2017-09-29T15:31:05.365Z,7.83
2017-09-29T15:33:32.996Z,4.47
2017-09-29T15:36:00.574Z,7.10
2017-09-29T15:38:28.172Z,6.73
2017-09-29T15:40:55.742Z,6.93
2017-09-29T15:43:23.314Z,8.60
2017-09-29T15:45:51.653Z,9.93
2017-09-29T15:48:19.486Z,5.77
2017-09-29T15:50:47.558Z,11.80
2017-09-29T15:53:15.884Z,4.23
2017-09-29T15:55:43.478Z,7.00
2017-09-29T15:58:11.053Z,4.83
2017-09-29T16:00:38.829Z,5.73
2017-09-29T16:03:07.151Z,5.47
2017-09-29T16:05:34.748Z,7.37
2017-09-29T16:08:02.337Z,7.90
2017-09-29T16:10:29.898Z,7.70
2017-09-29T16:12:57.474Z,6.80
2017-09-29T16:15:25.077Z,5.03
2017-09-29T16:17:52.642Z,11.63
2017-09-29T16:20:20.230Z,6.50
2017-09-29T16:22:48.561Z,11.73
2017-09-29T16:25:16.183Z,14.43
2017-09-29T16:27:44.523Z,5.63
2017-09-29T16:30:12.995Z,7.10
2017-09-29T16:32:40.591Z,10.37
2017-09-29T16:35:08.166Z,7.87
2017-09-29T16:37:36.603Z,9.37
2017-09-29T16:40:04.210Z,9.10
2017-09-29T16:42:32.574Z,7.77
2017-09-29T16:45:00.174Z,11.07
2017-09-29T16:47:28.528Z,6.83
2017-09-29T16:49:56.142Z,6.20
2017-09-29T16:52:23.718Z,14.30
2017-09-29T16:54:51.291Z,12.00
2017-09-29T16:57:18.881Z,10.33
2017-09-29T16:59:46.608Z,8.83
2017-09-29T17:02:14.257Z,10.10
2017-09-29T17:04:41.843Z,8.23
2017-09-29T17:07:09.447Z,5.30
2017-09-29T17:09:37.000Z,7.60
2017-09-29T17:12:04.616Z,21.27
2017-09-29T17:14:32.190Z,12.27
2017-09-29T17:16:59.790Z,14.80
2017-09-29T17:19:28.165Z,10.83
2017-09-29T17:21:55.726Z,9.27
2017-09-29T17:24:24.285Z,8.00
2017-09-29T17:26:51.881Z,17.90
2017-09-29T17:29:20.276Z,8.53
2017-09-29T17:31:48.603Z,5.07
2017-09-29T17:34:16.214Z,12.00
2017-09-29T17:36:44.574Z,10.23
2017-09-29T17:39:12.158Z,8.33
2017-09-29T17:41:39.773Z,9.43
2017-09-29T17:44:07.527Z,7.90
2017-09-29T17:46:35.100Z,9.50
2017-09-29T17:49:02.782Z,10.93
2017-09-29T17:51:30.370Z,7.17
2017-09-29T17:53:58.903Z,6.17
2017-09-29T17:56:26.524Z,8.53
2017-09-29T17:58:54.176Z,8.93
2017-09-29T18:01:21.750Z,6.70
2017-09-29T18:03:49.747Z,8.93
2017-09-29T18:06:17.471Z,9.97
2017-09-29T18:08:52.029Z,9.13
2017-09-29T18:11:20.396Z,9.07
2017-09-29T18:13:48.735Z,9.80
2017-09-29T18:16:16.331Z,7.10
2017-09-29T18:18:43.986Z,10.87
2017-09-29T18:21:11.812Z,9.90
2017-09-29T18:23:39.885Z,11.27
2017-09-29T18:26:07.757Z,8.67
2017-09-29T18:28:35.729Z,11.13
2017-09-29T18:31:03.818Z,5.83
2017-09-29T18:33:31.463Z,7.50
2017-09-29T18:35:59.042Z,6.50
2017-09-29T18:38:27.002Z,8.00
2017-09-29T18:40:58.863Z,9.33
2017-09-29T18:43:28.452Z,6.90
2017-09-29T18:46:05.934Z,10.27
2017-09-29T18:48:34.557Z,8.50
2017-09-29T18:51:02.178Z,11.60
2017-09-29T18:53:30.584Z,11.80
2017-09-29T18:55:59.292Z,11.10
2017-09-29T18:58:27.362Z,7.13
2017-09-29T19:00:55.285Z,7.20
2017-09-29T19:03:23.257Z,7.93
2017-09-29T19:05:51.330Z,8.40
2017-09-29T19:08:18.974Z,10.80
2017-09-29T19:10:46.643Z,7.10
2017-09-29T19:13:14.256Z,6.90
2017-09-29T19:15:41.854Z,9.80
2017-09-29T19:18:09.570Z,6.67
2017-09-29T19:20:37.185Z,8.33
2017-09-29T19:23:05.522Z,6.53
2017-09-29T19:25:33.161Z,5.43
2017-09-29T19:28:00.722Z,10.07
2017-09-29T19:30:28.295Z,7.07
2017-09-29T19:32:55.909Z,8.43
2017-09-29T19:35:23.486Z,7.87
2017-09-29T19:37:51.950Z,6.20
2017-09-29T19:40:20.462Z,7.23
2017-09-29T19:42:48.860Z,8.60
2017-09-29T19:45:16.605Z,9.67
2017-09-29T19:47:44.166Z,8.37
2017-09-29T19:50:12.981Z,9.53
2017-09-29T19:52:40.989Z,11.57
2017-09-29T19:55:09.389Z,13.47
2017-09-29T19:57:36.951Z,9.67
2017-09-29T20:00:04.695Z,8.37
2017-09-29T20:02:44.008Z,10.70
2017-09-29T20:05:13.736Z,6.63
2017-09-29T20:07:41.447Z,10.73
2017-09-29T20:10:09.831Z,10.97
2017-09-29T20:12:49.715Z,9.43
2017-09-29T20:15:17.310Z,8.27
2017-09-29T20:17:44.954Z,14.17
2017-09-29T20:20:12.536Z,11.07
2017-09-29T20:22:40.139Z,7.20
2017-09-29T20:25:08.532Z,21.60
2017-09-29T20:27:36.094Z,13.30
2017-09-29T20:30:03.642Z,11.10
2017-09-29T20:32:31.339Z,11.07
2017-09-29T20:34:58.959Z,8.00
2017-09-29T20:37:26.556Z,6.97
2017-09-29T20:39:54.184Z,6.80
2017-09-29T20:42:21.757Z,8.63
2017-09-29T20:44:49.360Z,7.53
2017-09-29T20:47:16.936Z,6.00
2017-09-29T20:49:44.522Z,8.00
2017-09-29T20:52:12.848Z,9.63
2017-09-29T20:54:40.466Z,9.33
2017-09-29T20:57:08.794Z,10.40
2017-09-29T20:59:37.476Z,7.07
2017-09-29T21:02:05.278Z,8.10
2017-09-29T21:04:32.854Z,8.20
2017-09-29T21:07:01.204Z,8.97
2017-09-29T21:09:28.818Z,7.60
2017-09-29T21:11:56.438Z,7.97
2017-09-29T21:14:24.201Z,11.97
2017-09-29T21:16:51.918Z,7.93
2017-09-29T21:19:19.673Z,9.30
2017-09-29T21:21:47.303Z,11.30
2017-09-29T21:24:15.115Z,12.97
2017-09-29T21:26:43.454Z,12.93
2017-09-29T21:29:11.015Z,8.90
2017-09-29T21:31:38.622Z,7.63
2017-09-29T21:34:06.188Z,13.83
2017-09-29T21:36:33.778Z,9.00
2017-09-29T21:39:01.575Z,7.03
2017-09-29T21:41:29.923Z,9.43
2017-09-29T21:43:57.535Z,11.90
2017-09-29T21:46:25.924Z,7.50
2017-09-29T21:48:53.539Z,7.50
2017-09-29T21:51:21.145Z,8.37
2017-09-29T21:53:49.502Z,9.80
2017-09-29T21:56:17.057Z,6.83
2017-09-29T21:58:44.617Z,6.90
2017-09-29T22:01:12.174Z,10.30
2017-09-29T22:03:39.745Z,9.13
2017-09-29T22:06:07.333Z,9.07
2017-09-29T22:08:35.665Z,10.53
2017-09-29T22:11:03.255Z,7.63
2017-09-29T22:13:31.586Z,7.40
2017-09-29T22:15:59.210Z,8.50
2017-09-29T22:18:27.688Z,13.20
2017-09-29T22:20:56.017Z,7.53
2017-09-29T22:23:23.624Z,9.97
2017-09-29T22:25:51.187Z,12.43
2017-09-29T22:28:18.913Z,8.10
2017-09-29T22:30:46.510Z,9.60
2017-09-29T22:33:14.094Z,6.80
2017-09-29T22:35:42.438Z,7.83
2017-09-29T22:38:10.068Z,8.10
2017-09-29T22:40:37.649Z,6.70
2017-09-29T22:43:05.270Z,10.60
2017-09-29T22:45:33.983Z,16.73
2017-09-29T22:48:01.583Z,29.07
2017-09-29T22:50:29.197Z,21.07
2017-09-29T22:52:57.497Z,22.90
2017-09-29T22:55:25.091Z,16.10
2017-09-29T22:57:52.683Z,12.67
2017-09-29T23:00:21.087Z,28.87
2017-09-29T23:02:48.698Z,22.23
2017-09-29T23:05:16.291Z,10.27
2017-09-29T23:07:44.616Z,10.90
2017-09-29T23:10:12.222Z,10.43
2017-09-29T23:12:39.805Z,13.63
2017-09-29T23:15:08.167Z,10.40
2017-09-29T23:17:36.558Z,7.10
2017-09-29T23:20:04.110Z,7.30
2017-09-29T23:22:32.457Z,10.10
2017-09-29T23:25:00.160Z,6.83
2017-09-29T23:27:28.536Z,8.50
2017-09-29T23:29:56.855Z,14.43
2017-09-29T23:32:24.410Z,11.93
2017-09-29T23:34:52.004Z,9.90
2017-09-29T23:37:19.573Z,12.23
2017-09-29T23:39:47.235Z,12.13
2017-09-29T23:42:14.799Z,9.93
2017-09-29T23:44:42.358Z,12.60
2017-09-29T23:47:10.123Z,13.50
2017-09-29T23:49:37.703Z,10.23
2017-09-29T23:52:05.297Z,13.40
2017-09-29T23:54:32.889Z,10.50
2017-09-29T23:57:00.491Z,9.77
2017-09-29T23:59:28.308Z,7.93
